createdAt,value
2023-08-11T14:07:40.214Z,97380.81
2023-08-11T14:20:09.916Z,97366.97
2023-08-11T14:22:37.022Z,97373.97
2023-08-11T14:25:04.477Z,97364.56
2023-08-11T14:37:35.293Z,97377.28
2023-08-11T14:43:23.220Z,97353.66
2023-08-11T14:45:50.409Z,97381.88
2023-08-11T14:48:17.599Z,97370.09
2023-08-11T14:50:44.654Z,97378.38
2023-08-11T14:53:11.760Z,97369.63
2023-08-11T14:55:39.419Z,97383.34
2023-08-11T14:58:06.426Z,97389.16
2023-08-11T15:00:34.624Z,97384.94
2023-08-11T15:03:01.799Z,97377.22
2023-08-11T15:05:28.999Z,97356.47
2023-08-11T15:07:56.242Z,97380.44
2023-08-11T15:10:23.527Z,97350.44
2023-08-11T15:12:50.641Z,97372.53
2023-08-11T15:15:17.726Z,97365.47
2023-08-11T15:17:44.823Z,97373.03
2023-08-11T15:20:12.321Z,97370.09
2023-08-11T15:22:39.442Z,97372.34
2023-08-11T15:25:07.591Z,97366.81
2023-08-11T15:27:36.544Z,97369.53
2023-08-11T15:30:05.403Z,97368.34
2023-08-11T15:32:32.934Z,97359.31
2023-08-11T15:34:59.984Z,97378.00
2023-08-11T15:37:27.022Z,97375.97
2023-08-11T15:39:53.990Z,97382.72
2023-08-11T15:42:21.028Z,97367.84
2023-08-11T15:44:49.130Z,97364.78
2023-08-11T15:47:16.200Z,97365.44
2023-08-11T15:49:44.392Z,97357.88
2023-08-11T15:52:11.741Z,97330.09
2023-08-11T15:54:39.040Z,97365.44
2023-08-11T15:57:06.139Z,97357.44
2023-08-11T15:59:33.569Z,97376.22
2023-08-11T16:02:09.223Z,97358.41
2023-08-11T16:04:38.119Z,97370.41
2023-08-11T16:07:05.787Z,97385.19
2023-08-11T16:09:32.929Z,97388.63
2023-08-11T16:11:59.950Z,97364.00
2023-08-11T16:14:29.174Z,97374.72
2023-08-11T16:16:56.475Z,97379.97
2023-08-11T16:19:25.131Z,97383.06
2023-08-11T16:21:52.722Z,97375.78
2023-08-11T16:24:20.663Z,97362.03
2023-08-11T16:26:48.732Z,97387.00
2023-08-11T16:29:16.948Z,97381.38
2023-08-11T16:31:44.261Z,97373.38
2023-08-11T16:34:12.099Z,97375.72
2023-08-11T16:36:39.057Z,97370.38
2023-08-11T16:39:06.487Z,97383.69
2023-08-11T16:41:33.951Z,97374.31
2023-08-11T16:44:01.274Z,97372.28
2023-08-11T16:46:28.528Z,97366.09
2023-08-11T16:48:56.154Z,97375.19
2023-08-11T16:51:23.532Z,97390.03
2023-08-11T16:53:50.667Z,97393.47
2023-08-11T16:56:17.818Z,97371.03
2023-08-11T16:58:44.889Z,97396.84
2023-08-11T17:01:12.035Z,97398.09
2023-08-11T17:03:39.372Z,97390.13
2023-08-11T17:06:06.416Z,97391.91
2023-08-11T17:08:34.494Z,97395.28
2023-08-11T17:11:02.995Z,97387.59
2023-08-11T17:13:31.252Z,97401.56
2023-08-11T17:15:58.388Z,97381.78
2023-08-11T17:18:25.437Z,97395.72
2023-08-11T17:20:52.564Z,97392.72
2023-08-11T17:23:19.823Z,97399.38
2023-08-11T17:25:47.747Z,97404.34
2023-08-11T17:28:15.034Z,97373.28
2023-08-11T17:30:42.396Z,97409.66
2023-08-11T17:33:09.646Z,97406.78
2023-08-11T17:37:35.683Z,97420.34
2023-08-11T17:40:02.826Z,97416.09
2023-08-11T17:42:30.197Z,97397.66
2023-08-11T17:44:57.292Z,97396.63
2023-08-11T17:47:24.367Z,97395.69
2023-08-11T17:49:52.900Z,97422.31
2023-08-11T17:52:19.984Z,97423.78
2023-08-11T17:54:46.938Z,97429.97
2023-08-11T17:57:14.039Z,97418.28
2023-08-11T17:59:41.119Z,97432.63
2023-08-11T18:02:08.481Z,97430.66
2023-08-11T18:04:36.162Z,97434.22
2023-08-11T18:07:03.539Z,97427.84
2023-08-11T18:09:30.556Z,97434.00
2023-08-11T18:11:57.779Z,97436.34
2023-08-11T18:14:24.823Z,97444.69
2023-08-11T18:16:51.911Z,97427.44
2023-08-11T18:19:19.017Z,97433.94
2023-08-11T18:21:46.055Z,97448.41
2023-08-11T18:24:13.009Z,97450.63
2023-08-11T18:26:40.151Z,97445.47
2023-08-11T18:29:08.879Z,97443.09
2023-08-11T18:31:36.015Z,97455.81
2023-08-11T18:34:03.239Z,97426.44
2023-08-11T18:36:30.279Z,97458.31
2023-08-11T18:38:57.459Z,97450.34
2023-08-11T18:41:24.668Z,97454.84
2023-08-11T18:43:51.920Z,97470.69
2023-08-11T18:46:18.940Z,97466.69
2023-08-11T18:48:49.617Z,97467.41
2023-08-11T18:51:17.188Z,97469.75
2023-08-11T18:53:44.246Z,97419.81
2023-08-11T18:56:12.823Z,97467.94
2023-08-11T18:58:40.472Z,97470.16
2023-08-11T19:01:07.780Z,97478.78
2023-08-11T19:03:36.442Z,97470.56
2023-08-11T19:06:04.619Z,97457.06
2023-08-11T19:08:31.822Z,97470.09
2023-08-11T19:10:59.375Z,97478.78
2023-08-11T19:13:26.452Z,97471.00
2023-08-11T19:15:53.633Z,97478.00
2023-08-11T19:18:21.300Z,97467.81
2023-08-11T19:20:48.459Z,97474.78
2023-08-11T19:23:16.716Z,97463.78
2023-08-11T19:25:49.110Z,97463.06
2023-08-11T19:28:16.217Z,97471.00
2023-08-11T19:30:43.430Z,97459.28
2023-08-11T19:33:10.606Z,97482.16
2023-08-11T19:35:37.834Z,97479.13
2023-08-11T19:38:05.468Z,97412.13
2023-08-11T19:40:32.654Z,97477.41
2023-08-11T19:43:00.368Z,97467.00
2023-08-11T19:45:27.512Z,97426.47
2023-08-11T19:47:54.651Z,97456.00
2023-08-11T19:50:23.391Z,97466.88
2023-08-11T19:52:53.138Z,97458.53
2023-08-11T19:55:20.238Z,97481.06
2023-08-11T19:57:47.329Z,97443.88
2023-08-11T20:00:15.077Z,97472.97
2023-08-11T20:02:42.400Z,97472.84
2023-08-11T20:05:09.669Z,97480.22
2023-08-11T20:07:36.808Z,97468.13
2023-08-11T20:10:04.629Z,97476.84
2023-08-11T20:12:31.771Z,97477.00
2023-08-11T20:14:58.935Z,97472.00
2023-08-11T20:17:26.827Z,97469.91
2023-08-11T20:19:53.898Z,97434.53
2023-08-11T20:22:21.299Z,97474.78
2023-08-11T20:24:49.815Z,97469.91
2023-08-11T20:27:17.335Z,97469.22
2023-08-11T20:29:44.538Z,97472.34
2023-08-11T20:32:11.626Z,97460.22
2023-08-11T20:34:38.738Z,97480.28
2023-08-11T20:37:06.012Z,97480.41
2023-08-11T20:39:32.979Z,97460.94
2023-08-11T20:42:00.106Z,97459.25
2023-08-11T20:44:27.140Z,97471.50
2023-08-11T20:46:55.745Z,97458.38
2023-08-11T20:49:22.975Z,97465.31
2023-08-11T20:51:50.154Z,97451.53
2023-08-11T20:54:17.387Z,97473.31
2023-08-11T20:56:44.619Z,97472.38
2023-08-11T20:59:11.808Z,97463.44
2023-08-11T21:01:39.050Z,97446.75
2023-08-11T21:04:06.489Z,97461.88
2023-08-11T21:06:34.884Z,97453.09
2023-08-11T21:09:01.919Z,97454.63
2023-08-11T21:11:28.968Z,97470.66
2023-08-11T21:13:56.571Z,97431.25
2023-08-11T21:16:23.761Z,97465.28
2023-08-11T21:18:51.762Z,97446.81
2023-08-11T21:21:18.929Z,97458.84
2023-08-11T21:23:46.000Z,97452.00
2023-08-11T21:26:13.419Z,97426.63
2023-08-11T21:28:40.531Z,97440.59
2023-08-11T21:31:17.755Z,97457.16
2023-08-11T21:33:57.449Z,97465.53
2023-08-11T21:36:24.854Z,97469.28
2023-08-11T21:38:51.911Z,97451.38
2023-08-11T21:41:19.013Z,97454.84
2023-08-11T21:43:46.345Z,97468.22
2023-08-11T21:46:13.431Z,97460.50
2023-08-11T21:48:40.453Z,97458.03
2023-08-11T21:51:07.611Z,97463.88
2023-08-11T21:53:34.963Z,97473.38
2023-08-11T21:56:02.179Z,97472.94
2023-08-11T21:58:29.226Z,97455.75
2023-08-11T22:00:56.463Z,97481.19
2023-08-11T22:03:23.604Z,97477.00
2023-08-11T22:05:50.567Z,97473.44
2023-08-11T22:08:17.592Z,97476.28
2023-08-11T22:10:46.105Z,97482.66
2023-08-11T22:13:13.597Z,97474.19
2023-08-11T22:15:40.680Z,97471.28
2023-08-11T22:18:08.629Z,97466.13
2023-08-11T22:20:35.784Z,97476.56
2023-08-11T22:23:02.919Z,97479.06
2023-08-11T22:25:30.141Z,97472.59
2023-08-11T22:27:57.208Z,97465.31
2023-08-11T22:30:24.401Z,97461.47
2023-08-11T22:32:51.626Z,97464.56
2023-08-11T22:35:18.964Z,97457.69
2023-08-11T22:37:46.065Z,97451.28
2023-08-11T22:40:13.381Z,97451.59
2023-08-11T22:42:40.439Z,97438.44
2023-08-11T22:45:08.125Z,97462.25
2023-08-11T22:47:35.324Z,97444.41
2023-08-11T22:50:02.410Z,97448.25
2023-08-11T22:52:30.340Z,97460.34
2023-08-11T22:54:57.522Z,97458.03
2023-08-11T22:57:26.432Z,97459.50
2023-08-11T22:59:54.041Z,97449.47
2023-08-11T23:02:21.287Z,97452.97
2023-08-11T23:04:51.385Z,97447.28
2023-08-11T23:07:24.185Z,97448.47
2023-08-11T23:09:51.392Z,97450.44
2023-08-11T23:12:18.414Z,97438.16
2023-08-11T23:14:45.750Z,97445.66
2023-08-11T23:17:13.118Z,97448.47
2023-08-11T23:19:40.735Z,97442.09
2023-08-11T23:22:09.709Z,97437.47
2023-08-11T23:24:36.736Z,97411.19
2023-08-11T23:27:03.876Z,97433.44
2023-08-11T23:29:30.972Z,97457.19
2023-08-11T23:31:58.202Z,97456.56
2023-08-11T23:34:25.485Z,97444.72
2023-08-11T23:36:52.552Z,97398.69
2023-08-11T23:39:19.657Z,97448.25
2023-08-11T23:41:46.848Z,97448.13
2023-08-11T23:44:13.934Z,97439.78
2023-08-11T23:46:41.072Z,97439.88
2023-08-11T23:49:08.225Z,97424.69
2023-08-11T23:51:35.289Z,97440.50
2023-08-11T23:54:02.434Z,97425.28
2023-08-11T23:56:30.648Z,97437.28
2023-08-11T23:58:57.695Z,97413.94
